Time;durP1;ratioP1;P1;durP2;ratioP2;P2;SDS_P1;SDS_P2;PMS_P1;PMS_P2;Temp;Humidity;BMP_temperature;BMP_pressure;BME280_temperature;BME280_humidity;BME280_pressure;Samples;Min_cycle;Max_cycle;Signal;HPM_P1;HPM_P2
2022/04/12 00:00:29;;;;;;;2.70;1.33;;;10.60;99.00;;;;;;20747228;28;20042;-46
2022/04/12 00:10:31;;;;;;;4.20;1.48;;;10.40;99.40;;;;;;20720420;28;20054;-45
2022/04/12 00:20:33;;;;;;;6.18;1.83;;;10.50;99.50;;;;;;20708785;28;20041;-45
2022/04/12 00:30:35;;;;;;;2.97;1.90;;;10.40;99.80;;;;;;20745859;28;20041;-45
2022/04/12 00:40:36;;;;;;;13.63;4.88;;;10.40;99.90;;;;;;20774691;28;20037;-45
2022/04/12 00:50:38;;;;;;;5.22;1.67;;;10.50;99.90;;;;;;20761470;28;20523;-45
2022/04/12 01:00:39;;;;;;;5.07;1.77;;;10.40;99.90;;;;;;20771876;28;20412;-45
2022/04/12 01:10:41;;;;;;;3.45;1.38;;;10.30;99.90;;;;;;20763757;28;20041;-45
2022/04/12 01:20:42;;;;;;;3.30;1.70;;;10.20;99.90;;;;;;20773940;28;20029;-45
2022/04/12 01:30:44;;;;;;;2.85;1.20;;;10.30;99.90;;;;;;20784422;28;20460;-45
2022/04/12 01:40:45;;;;;;;3.72;1.25;;;10.30;99.90;;;;;;20777347;28;20052;-45
2022/04/12 01:50:46;;;;;;;3.05;1.00;;;10.40;99.90;;;;;;20766055;28;20048;-45
2022/04/12 02:00:47;;;;;;;3.40;1.23;;;10.50;99.90;;;;;;20762044;28;20181;-45
2022/04/12 02:10:49;;;;;;;3.75;1.33;;;10.50;99.90;;;;;;20761257;28;20060;-46
2022/04/12 02:20:56;;;;;;;6.63;1.60;;;10.50;99.90;;;;;;20753242;28;20037;-45
2022/04/12 02:30:57;;;;;;;3.00;1.25;;;10.60;99.90;;;;;;20759837;28;20046;-45
2022/04/12 02:41:02;;;;;;;3.15;1.70;;;10.50;99.90;;;;;;20699033;28;20501;-46
2022/04/12 02:51:03;;;;;;;3.15;1.10;;;10.20;99.90;;;;;;20693839;28;20072;-45
2022/04/12 03:01:04;;;;;;;3.00;1.65;;;10.20;99.90;;;;;;20690065;28;20047;-45
2022/04/12 03:11:05;;;;;;;3.75;1.67;;;10.20;99.90;;;;;;20688044;28;20041;-45
2022/04/12 03:21:06;;;;;;;2.97;1.20;;;10.10;99.90;;;;;;20700711;28;20038;-45
2022/04/12 03:31:07;;;;;;;4.55;1.70;;;10.30;99.90;;;;;;20700920;28;20050;-45
2022/04/12 03:41:08;;;;;;;2.33;1.10;;;10.20;99.90;;;;;;20757943;28;20050;-45
2022/04/12 03:51:11;;;;;;;2.95;1.30;;;10.10;99.90;;;;;;20766240;28;20050;-45
2022/04/12 04:01:12;;;;;;;3.10;1.45;;;10.00;99.90;;;;;;20772925;28;21993;-45
2022/04/12 04:11:14;;;;;;;2.00;0.90;;;9.80;99.90;;;;;;20775684;28;20514;-45
2022/04/12 04:21:15;;;;;;;4.57;1.55;;;9.70;99.90;;;;;;20771107;28;20038;-45
2022/04/12 04:31:17;;;;;;;4.45;1.20;;;9.50;99.90;;;;;;20769247;28;20047;-45
2022/04/12 04:41:18;;;;;;;1.85;1.05;;;9.50;99.90;;;;;;20771410;28;20348;-45
2022/04/12 04:51:20;;;;;;;3.95;1.38;;;9.50;99.90;;;;;;20781077;28;20053;-45
2022/04/12 05:01:21;;;;;;;4.43;1.83;;;9.60;99.90;;;;;;20792994;28;20049;-45
2022/04/12 05:11:22;;;;;;;6.30;2.10;;;9.70;99.90;;;;;;20784138;28;20605;-45
2022/04/12 05:21:24;;;;;;;2.95;1.77;;;9.80;99.90;;;;;;20785149;28;20044;-45
2022/04/12 05:31:25;;;;;;;5.22;1.92;;;9.80;99.90;;;;;;20782538;28;20048;-45
2022/04/12 05:41:26;;;;;;;9.63;5.25;;;9.80;99.90;;;;;;20759302;28;20053;-45
2022/04/12 05:51:27;;;;;;;2.97;1.33;;;9.80;99.90;;;;;;20782788;28;20049;-45
2022/04/12 06:01:28;;;;;;;4.60;1.17;;;9.90;99.90;;;;;;20759413;28;20623;-45
2022/04/12 06:11:29;;;;;;;4.97;2.05;;;10.00;99.90;;;;;;20777189;28;20049;-45
2022/04/12 06:21:31;;;;;;;5.28;2.30;;;10.30;99.90;;;;;;20764346;28;20049;-46
2022/04/12 06:31:32;;;;;;;3.63;2.25;;;10.50;99.90;;;;;;20763567;28;20045;-45
2022/04/12 06:41:33;;;;;;;3.13;2.10;;;10.80;99.90;;;;;;20716641;28;20294;-45
2022/04/12 06:51:34;;;;;;;3.22;1.42;;;11.10;99.90;;;;;;20699944;28;20049;-45
2022/04/12 07:01:35;;;;;;;3.40;1.95;;;11.50;99.90;;;;;;20703568;28;20492;-45
2022/04/12 07:11:36;;;;;;;3.75;1.70;;;11.70;99.90;;;;;;20773246;28;20060;-45
2022/04/12 07:21:37;;;;;;;4.18;1.73;;;11.90;99.90;;;;;;20796453;28;20044;-45
2022/04/12 07:31:39;;;;;;;4.93;1.50;;;12.20;99.90;;;;;;20776994;28;20060;-45
2022/04/12 07:41:40;;;;;;;4.03;1.58;;;12.60;99.90;;;;;;20711765;28;20049;-45
2022/04/12 07:51:41;;;;;;;4.43;1.38;;;12.90;99.90;;;;;;20703048;28;20050;-45
2022/04/12 08:01:42;;;;;;;3.67;1.48;;;13.20;99.90;;;;;;20697986;28;20714;-45
2022/04/12 08:11:44;;;;;;;6.50;1.73;;;13.40;99.90;;;;;;20692051;28;20057;-45
2022/04/12 08:21:46;;;;;;;4.10;1.38;;;13.50;99.90;;;;;;20699212;28;20049;-46
2022/04/12 08:31:47;;;;;;;5.30;1.50;;;14.10;99.90;;;;;;20699874;28;20042;-45
2022/04/12 08:41:51;;;;;;;3.13;1.42;;;14.20;99.90;;;;;;20780947;28;20788;-46
2022/04/12 08:51:53;;;;;;;4.25;1.33;;;14.30;99.90;;;;;;20770652;28;20045;-45
2022/04/12 09:01:54;;;;;;;5.65;2.22;;;14.60;99.90;;;;;;20773738;28;20049;-45
2022/04/12 09:12:00;;;;;;;5.35;2.10;;;14.80;99.90;;;;;;20787477;28;20120;-45
2022/04/12 09:22:01;;;;;;;3.58;1.77;;;15.30;99.90;;;;;;20786586;28;20052;-46
2022/04/12 09:32:03;;;;;;;3.83;1.80;;;15.80;99.90;;;;;;20793659;28;20037;-46
2022/04/12 09:42:04;;;;;;;5.80;1.98;;;16.20;99.90;;;;;;20793439;28;20467;-46
2022/04/12 09:52:10;;;;;;;2.97;1.15;;;16.60;98.90;;;;;;20800849;28;20064;-46
2022/04/12 10:02:11;;;;;;;3.35;1.40;;;17.00;99.90;;;;;;20813013;28;20041;-46
2022/04/12 10:12:13;;;;;;;6.22;1.80;;;17.20;99.00;;;;;;20815867;28;20063;-46
2022/04/12 10:22:14;;;;;;;4.68;1.77;;;17.60;98.30;;;;;;20812414;28;20037;-46
2022/04/12 10:32:15;;;;;;;4.90;1.70;;;18.20;99.20;;;;;;20812325;28;20358;-46
2022/04/12 10:42:31;;;;;;;4.80;1.30;;;18.70;97.80;;;;;;20802654;28;20052;-46
2022/04/12 10:52:48;;;;;;;3.80;1.65;;;18.80;97.40;;;;;;20809037;28;20045;-46
2022/04/12 11:02:57;;;;;;;3.33;1.90;;;19.00;97.50;;;;;;20810632;28;20115;-46
2022/04/12 11:13:09;;;;;;;3.78;1.35;;;18.30;98.10;;;;;;20809382;28;20059;-46
2022/04/12 11:23:13;;;;;;;4.80;1.65;;;18.20;98.50;;;;;;20807071;28;20532;-46
2022/04/12 11:33:16;;;;;;;2.58;1.25;;;18.40;98.80;;;;;;20801869;28;20041;-46
2022/04/12 11:43:25;;;;;;;4.13;1.20;;;18.50;98.50;;;;;;20803994;28;20089;-46
2022/04/12 11:53:26;;;;;;;3.70;2.05;;;18.70;99.00;;;;;;20809051;28;20384;-47
2022/04/12 12:03:28;;;;;;;4.00;1.73;;;18.80;98.70;;;;;;20796679;28;20034;-46
2022/04/12 12:13:29;;;;;;;3.95;1.65;;;19.60;99.30;;;;;;20799177;28;20057;-47
2022/04/12 12:23:30;;;;;;;3.67;1.77;;;20.30;97.10;;;;;;20795796;28;20050;-46
2022/04/12 12:33:41;;;;;;;3.25;1.35;;;20.80;96.00;;;;;;20800401;28;20075;-46
2022/04/12 12:43:42;;;;;;;7.70;2.03;;;21.00;95.60;;;;;;20797824;28;20038;-46
2022/04/12 12:53:44;;;;;;;3.40;1.17;;;21.00;96.80;;;;;;20799844;28;20053;-46
2022/04/12 13:03:54;;;;;;;3.90;1.70;;;21.60;96.00;;;;;;20798265;28;20042;-46
2022/04/12 13:13:55;;;;;;;4.22;1.40;;;21.90;95.50;;;;;;20824897;28;20326;-46
2022/04/12 13:23:57;;;;;;;4.13;1.85;;;22.20;95.00;;;;;;20829335;28;20464;-46
2022/04/12 13:33:58;;;;;;;3.72;1.85;;;22.10;94.90;;;;;;20820296;28;20041;-47
2022/04/12 13:44:01;;;;;;;3.58;1.30;;;22.30;94.70;;;;;;20823552;28;20142;-46
2022/04/12 13:54:02;;;;;;;4.88;1.55;;;22.20;94.80;;;;;;20819352;28;20506;-47
2022/04/12 14:04:04;;;;;;;5.38;2.03;;;22.40;94.70;;;;;;20805691;28;20168;-46
2022/04/12 14:14:07;;;;;;;3.13;2.08;;;22.30;93.60;;;;;;20793539;28;20400;-46
2022/04/12 14:24:09;;;;;;;2.53;1.52;;;22.00;95.00;;;;;;20794275;28;20409;-46
2022/04/12 14:34:10;;;;;;;3.60;1.50;;;21.60;93.80;;;;;;20807668;28;20056;-46
2022/04/12 14:44:12;;;;;;;5.05;1.30;;;21.60;92.60;;;;;;20809401;28;20041;-46
2022/04/12 14:54:14;;;;;;;4.35;1.38;;;21.00;92.90;;;;;;20810894;28;20061;-46
2022/04/12 15:04:17;;;;;;;2.95;1.17;;;20.90;93.40;;;;;;20819115;28;20061;-46
2022/04/12 15:14:18;;;;;;;4.40;1.60;;;21.20;93.10;;;;;;20816793;28;20051;-46
2022/04/12 15:24:24;;;;;;;6.68;1.90;;;21.10;92.30;;;;;;20814184;28;20047;-46
2022/04/12 15:34:26;;;;;;;5.18;2.38;;;21.20;92.70;;;;;;20810870;28;20057;-46
2022/04/12 15:44:27;;;;;;;5.13;2.70;;;21.10;92.50;;;;;;20742804;28;20030;-46
2022/04/12 15:54:28;;;;;;;4.57;2.03;;;20.90;92.60;;;;;;20742883;28;20049;-46
2022/04/12 16:04:35;;;;;;;6.40;1.92;;;20.90;93.50;;;;;;20738050;28;20444;-46
2022/04/12 16:14:37;;;;;;;5.03;1.42;;;20.90;92.90;;;;;;20742596;28;20888;-46
2022/04/12 16:24:38;;;;;;;4.78;1.58;;;20.70;93.10;;;;;;20724797;28;20048;-46
2022/04/12 16:34:39;;;;;;;3.00;1.33;;;20.60;93.50;;;;;;20749191;28;20046;-46
2022/04/12 16:44:40;;;;;;;4.47;1.02;;;20.60;93.50;;;;;;20819716;28;20033;-46
2022/04/12 16:54:41;;;;;;;3.22;1.20;;;20.60;93.50;;;;;;20824571;28;20049;-46
2022/04/12 17:04:42;;;;;;;2.97;1.08;;;20.60;94.10;;;;;;20824930;28;20088;-46
2022/04/12 17:14:46;;;;;;;4.03;1.00;;;20.50;94.50;;;;;;20834562;28;20060;-45
2022/04/12 17:24:47;;;;;;;2.90;0.90;;;20.40;95.70;;;;;;20825133;28;20042;-46
2022/04/12 17:34:48;;;;;;;2.17;1.08;;;20.30;96.80;;;;;;20809162;28;20046;-46
2022/04/12 17:44:49;;;;;;;3.92;1.08;;;20.00;97.50;;;;;;20796972;28;20044;-46
2022/04/12 17:54:50;;;;;;;3.67;1.55;;;19.80;97.80;;;;;;20787859;28;20045;-46
2022/04/12 18:04:58;;;;;;;4.25;1.25;;;19.40;98.20;;;;;;20799296;28;20048;-46
2022/04/12 18:14:59;;;;;;;3.20;0.90;;;19.40;98.00;;;;;;20800562;28;20088;-46
2022/04/12 18:25:01;;;;;;;2.03;1.10;;;19.10;98.70;;;;;;20794159;28;20457;-46
2022/04/12 18:35:04;;;;;;;4.07;1.88;;;18.90;99.20;;;;;;20792535;28;20075;-46
2022/04/12 18:45:05;;;;;;;2.47;0.88;;;18.70;99.90;;;;;;20798529;28;20519;-47
2022/04/12 18:55:07;;;;;;;2.15;0.75;;;18.50;99.90;;;;;;20789249;28;20386;-46
2022/04/12 19:05:09;;;;;;;2.22;1.05;;;18.30;99.90;;;;;;20801917;28;20413;-46
2022/04/12 19:15:13;;;;;;;1.48;0.57;;;18.10;99.90;;;;;;20805513;28;20497;-46
2022/04/12 19:25:20;;;;;;;2.28;0.80;;;17.90;99.90;;;;;;20770180;28;20037;-46
2022/04/12 19:35:21;;;;;;;3.47;1.07;;;17.80;99.90;;;;;;20780196;28;20307;-46
2022/04/12 19:45:23;;;;;;;2.45;0.80;;;17.90;99.90;;;;;;20773838;28;20033;-45
2022/04/12 19:55:26;;;;;;;2.67;0.80;;;17.90;99.90;;;;;;20772050;28;20045;-47
2022/04/12 20:05:27;;;;;;;2.47;1.02;;;17.80;99.90;;;;;;20767535;28;20042;-45
2022/04/12 20:15:28;;;;;;;5.65;1.85;;;17.60;99.90;;;;;;20769471;28;20508;-46
2022/04/12 20:25:29;;;;;;;2.00;0.90;;;17.40;99.90;;;;;;20753763;28;20047;-46
2022/04/12 20:35:31;;;;;;;1.83;0.85;;;17.20;99.90;;;;;;20757795;28;20045;-46
2022/04/12 20:45:33;;;;;;;3.33;1.38;;;16.90;99.90;;;;;;20710249;28;20367;-46
2022/04/12 20:55:35;;;;;;;3.05;1.67;;;16.70;99.90;;;;;;20712298;28;20046;-46
2022/04/12 21:05:36;;;;;;;2.90;1.58;;;16.30;99.90;;;;;;20757871;28;20049;-45
2022/04/12 21:15:37;;;;;;;4.43;1.63;;;16.10;99.90;;;;;;20753207;28;20049;-46
2022/04/12 21:25:38;;;;;;;4.90;2.17;;;15.80;99.90;;;;;;20766854;28;20493;-46
2022/04/12 21:35:39;;;;;;;2.60;1.30;;;15.70;99.90;;;;;;20757205;28;20049;-46
2022/04/12 21:45:40;;;;;;;6.38;1.30;;;15.60;99.90;;;;;;20790406;28;20044;-46
2022/04/12 21:55:41;;;;;;;3.20;1.98;;;15.40;99.90;;;;;;20775281;28;20045;-46
2022/04/12 22:05:43;;;;;;;7.30;2.92;;;15.40;99.90;;;;;;20766101;28;20037;-46
2022/04/12 22:15:44;;;;;;;4.47;2.28;;;15.50;99.90;;;;;;20774360;28;20120;-46
2022/04/12 22:25:46;;;;;;;3.53;1.90;;;15.50;99.90;;;;;;20765578;28;20046;-46
2022/04/12 22:35:47;;;;;;;2.72;1.35;;;15.20;99.90;;;;;;20768076;28;20579;-46
2022/04/12 22:45:48;;;;;;;6.22;2.63;;;15.00;99.90;;;;;;20766964;28;20071;-46
2022/04/12 22:55:51;;;;;;;11.10;2.00;;;14.80;99.90;;;;;;20758280;28;20048;-52
2022/04/12 23:05:52;;;;;;;3.08;1.38;;;14.50;99.90;;;;;;20753098;28;20496;-46
2022/04/12 23:15:53;;;;;;;4.38;2.42;;;14.30;99.90;;;;;;20764026;28;20076;-45
2022/04/12 23:25:54;;;;;;;2.80;1.38;;;14.00;99.90;;;;;;20747154;28;21437;-45
2022/04/12 23:35:55;;;;;;;4.93;1.65;;;13.90;99.90;;;;;;20734123;28;20542;-46
2022/04/12 23:45:56;;;;;;;5.95;1.80;;;13.70;99.90;;;;;;20718430;28;20072;-45
2022/04/12 23:55:57;;;;;;;4.50;2.00;;;13.60;99.90;;;;;;20744584;28;20077;-45
